Terminal Aerodrome Forecast
Issued by NWS

Home | Current Version | Previous Version | Text Only | Print | Product List | Glossary On
Versions: 1 2 3 4 5 6 7 8 9 10 11 12 13 14 15 16 17
000
FTUS41 KCAR 281734 AAA
TAFPQI
TAF AMD
KPQI 281734Z 2818/2918 18007KT P6SM -SHRA SCT035 OVC050
     FM290100 17006KT 5SM -SHRA BR SCT020 OVC040
     FM290600 19010KT P6SM BKN008
     FM291200 23007KT P6SM BKN015
     FM291400 26009KT P6SM BKN025=

USA.gov is the U.S. government's official web portal to all federal, state and local government web resources and services.